sensor_id;sensor_type;location;lat;lon;timestamp;temperature;humidity
15107;DHT22;7654;45.308;-75.096;2023-01-04T00:02:14;1.80;99.90
15107;DHT22;7654;45.308;-75.096;2023-01-04T00:04:46;1.80;99.90
15107;DHT22;7654;45.308;-75.096;2023-01-04T00:07:17;1.80;99.90
15107;DHT22;7654;45.308;-75.096;2023-01-04T00:09:47;1.80;99.90
15107;DHT22;7654;45.308;-75.096;2023-01-04T00:12:20;1.80;99.90
15107;DHT22;7654;45.308;-75.096;2023-01-04T00:14:51;1.80;99.90
15107;DHT22;7654;45.308;-75.096;2023-01-04T00:17:21;1.70;99.90
15107;DHT22;7654;45.308;-75.096;2023-01-04T00:19:55;1.70;99.90
15107;DHT22;7654;45.308;-75.096;2023-01-04T00:22:25;1.70;99.90
15107;DHT22;7654;45.308;-75.096;2023-01-04T00:24:55;1.70;99.90
15107;DHT22;7654;45.308;-75.096;2023-01-04T00:27:26;1.70;99.90
15107;DHT22;7654;45.308;-75.096;2023-01-04T00:29:57;1.70;99.90
15107;DHT22;7654;45.308;-75.096;2023-01-04T00:32:28;1.70;99.90
15107;DHT22;7654;45.308;-75.096;2023-01-04T00:34:59;1.70;99.90
15107;DHT22;7654;45.308;-75.096;2023-01-04T00:37:30;1.80;99.90
15107;DHT22;7654;45.308;-75.096;2023-01-04T00:40:01;1.80;99.90
15107;DHT22;7654;45.308;-75.096;2023-01-04T00:42:31;1.80;99.90
15107;DHT22;7654;45.308;-75.096;2023-01-04T00:45:02;1.80;99.90
15107;DHT22;7654;45.308;-75.096;2023-01-04T00:47:32;1.90;99.90
15107;DHT22;7654;45.308;-75.096;2023-01-04T00:50:04;1.90;99.90
15107;DHT22;7654;45.308;-75.096;2023-01-04T00:52:35;1.90;99.90
15107;DHT22;7654;45.308;-75.096;2023-01-04T00:55:06;1.90;99.90
15107;DHT22;7654;45.308;-75.096;2023-01-04T00:57:36;1.90;99.90
15107;DHT22;7654;45.308;-75.096;2023-01-04T01:00:08;1.90;99.90
15107;DHT22;7654;45.308;-75.096;2023-01-04T01:02:38;1.90;99.90
15107;DHT22;7654;45.308;-75.096;2023-01-04T01:05:11;1.90;99.90
15107;DHT22;7654;45.308;-75.096;2023-01-04T01:07:41;1.80;99.90
15107;DHT22;7654;45.308;-75.096;2023-01-04T01:10:11;1.80;99.90
15107;DHT22;7654;45.308;-75.096;2023-01-04T01:12:42;1.80;99.90
15107;DHT22;7654;45.308;-75.096;2023-01-04T01:15:12;1.80;99.90
15107;DHT22;7654;45.308;-75.096;2023-01-04T01:17:42;1.80;99.90
15107;DHT22;7654;45.308;-75.096;2023-01-04T01:20:14;1.80;99.90
15107;DHT22;7654;45.308;-75.096;2023-01-04T01:22:44;1.80;99.90
15107;DHT22;7654;45.308;-75.096;2023-01-04T01:25:15;1.80;99.90
15107;DHT22;7654;45.308;-75.096;2023-01-04T01:27:45;1.80;99.90
15107;DHT22;7654;45.308;-75.096;2023-01-04T01:30:15;1.80;99.90
15107;DHT22;7654;45.308;-75.096;2023-01-04T01:32:45;1.80;99.90
15107;DHT22;7654;45.308;-75.096;2023-01-04T01:35:17;1.80;99.90
15107;DHT22;7654;45.308;-75.096;2023-01-04T01:37:47;1.80;99.90
15107;DHT22;7654;45.308;-75.096;2023-01-04T01:40:17;1.80;99.90
15107;DHT22;7654;45.308;-75.096;2023-01-04T01:42:48;1.80;99.90
15107;DHT22;7654;45.308;-75.096;2023-01-04T01:45:25;1.80;99.90
15107;DHT22;7654;45.308;-75.096;2023-01-04T01:48:00;1.80;99.90
15107;DHT22;7654;45.308;-75.096;2023-01-04T01:50:36;1.80;99.90
15107;DHT22;7654;45.308;-75.096;2023-01-04T01:53:08;1.80;99.90
15107;DHT22;7654;45.308;-75.096;2023-01-04T01:55:41;1.80;99.90
15107;DHT22;7654;45.308;-75.096;2023-01-04T01:58:17;1.80;99.90
15107;DHT22;7654;45.308;-75.096;2023-01-04T02:00:49;1.80;99.90
15107;DHT22;7654;45.308;-75.096;2023-01-04T02:03:21;1.80;99.90
15107;DHT22;7654;45.308;-75.096;2023-01-04T02:05:57;1.70;99.90
15107;DHT22;7654;45.308;-75.096;2023-01-04T02:08:32;1.80;99.90
15107;DHT22;7654;45.308;-75.096;2023-01-04T02:11:03;1.80;99.90
15107;DHT22;7654;45.308;-75.096;2023-01-04T02:13:35;1.80;99.90
15107;DHT22;7654;45.308;-75.096;2023-01-04T02:16:32;1.80;99.90
15107;DHT22;7654;45.308;-75.096;2023-01-04T02:22:43;1.80;99.90
15107;DHT22;7654;45.308;-75.096;2023-01-04T02:25:46;1.80;99.90
15107;DHT22;7654;45.308;-75.096;2023-01-04T02:28:35;1.80;99.90
15107;DHT22;7654;45.308;-75.096;2023-01-04T02:31:27;1.80;99.90
15107;DHT22;7654;45.308;-75.096;2023-01-04T02:34:04;1.80;99.90
15107;DHT22;7654;45.308;-75.096;2023-01-04T02:36:41;1.80;99.90
15107;DHT22;7654;45.308;-75.096;2023-01-04T02:39:18;1.80;99.90
15107;DHT22;7654;45.308;-75.096;2023-01-04T02:41:53;1.80;99.90
15107;DHT22;7654;45.308;-75.096;2023-01-04T02:44:30;1.80;99.90
15107;DHT22;7654;45.308;-75.096;2023-01-04T02:47:22;1.80;99.90
15107;DHT22;7654;45.308;-75.096;2023-01-04T02:50:19;1.80;99.90
15107;DHT22;7654;45.308;-75.096;2023-01-04T02:53:05;1.70;99.90
15107;DHT22;7654;45.308;-75.096;2023-01-04T02:55:46;1.70;99.90
15107;DHT22;7654;45.308;-75.096;2023-01-04T02:58:29;1.70;99.90
15107;DHT22;7654;45.308;-75.096;2023-01-04T03:01:05;1.70;99.90
15107;DHT22;7654;45.308;-75.096;2023-01-04T03:04:05;1.70;99.90
15107;DHT22;7654;45.308;-75.096;2023-01-04T03:07:00;1.70;99.90
15107;DHT22;7654;45.308;-75.096;2023-01-04T03:09:34;1.70;99.90
15107;DHT22;7654;45.308;-75.096;2023-01-04T03:12:10;1.70;99.90
15107;DHT22;7654;45.308;-75.096;2023-01-04T03:15:05;1.70;99.90
15107;DHT22;7654;45.308;-75.096;2023-01-04T03:17:42;1.70;99.90
15107;DHT22;7654;45.308;-75.096;2023-01-04T03:20:16;1.70;99.90
15107;DHT22;7654;45.308;-75.096;2023-01-04T03:22:52;1.70;99.90
15107;DHT22;7654;45.308;-75.096;2023-01-04T03:25:44;1.70;99.90
15107;DHT22;7654;45.308;-75.096;2023-01-04T03:28:36;1.70;99.90
15107;DHT22;7654;45.308;-75.096;2023-01-04T03:31:27;1.70;99.90
15107;DHT22;7654;45.308;-75.096;2023-01-04T03:34:15;1.70;99.90
15107;DHT22;7654;45.308;-75.096;2023-01-04T03:37:09;1.70;99.90
15107;DHT22;7654;45.308;-75.096;2023-01-04T03:40:10;1.70;99.90
15107;DHT22;7654;45.308;-75.096;2023-01-04T03:43:06;1.70;99.90
15107;DHT22;7654;45.308;-75.096;2023-01-04T03:46:07;1.80;99.90
15107;DHT22;7654;45.308;-75.096;2023-01-04T03:49:01;1.80;99.90
15107;DHT22;7654;45.308;-75.096;2023-01-04T03:51:37;1.80;99.90
15107;DHT22;7654;45.308;-75.096;2023-01-04T03:54:10;1.80;99.90
15107;DHT22;7654;45.308;-75.096;2023-01-04T03:56:44;1.90;99.90
15107;DHT22;7654;45.308;-75.096;2023-01-04T03:59:15;1.90;99.90
15107;DHT22;7654;45.308;-75.096;2023-01-04T04:01:45;1.80;99.90
15107;DHT22;7654;45.308;-75.096;2023-01-04T04:04:15;1.80;99.90
15107;DHT22;7654;45.308;-75.096;2023-01-04T04:07:02;1.80;99.90
15107;DHT22;7654;45.308;-75.096;2023-01-04T04:09:51;1.80;99.90
15107;DHT22;7654;45.308;-75.096;2023-01-04T04:12:21;1.80;99.90
15107;DHT22;7654;45.308;-75.096;2023-01-04T04:14:52;1.80;99.90
15107;DHT22;7654;45.308;-75.096;2023-01-04T04:17:22;1.80;99.90
15107;DHT22;7654;45.308;-75.096;2023-01-04T04:19:52;1.80;99.90
15107;DHT22;7654;45.308;-75.096;2023-01-04T04:22:22;1.90;99.90
15107;DHT22;7654;45.308;-75.096;2023-01-04T04:24:54;1.90;99.90
15107;DHT22;7654;45.308;-75.096;2023-01-04T04:27:24;1.90;99.90
15107;DHT22;7654;45.308;-75.096;2023-01-04T04:29:54;1.90;99.90
15107;DHT22;7654;45.308;-75.096;2023-01-04T04:32:25;1.90;99.90
15107;DHT22;7654;45.308;-75.096;2023-01-04T04:34:55;1.90;99.90
15107;DHT22;7654;45.308;-75.096;2023-01-04T04:37:25;1.90;99.90
15107;DHT22;7654;45.308;-75.096;2023-01-04T04:39:59;1.90;99.90
15107;DHT22;7654;45.308;-75.096;2023-01-04T04:42:29;2.00;99.90
15107;DHT22;7654;45.308;-75.096;2023-01-04T04:44:58;2.00;99.90
15107;DHT22;7654;45.308;-75.096;2023-01-04T04:47:28;2.00;99.90
15107;DHT22;7654;45.308;-75.096;2023-01-04T04:49:58;2.00;99.90
15107;DHT22;7654;45.308;-75.096;2023-01-04T04:52:29;2.00;99.90
15107;DHT22;7654;45.308;-75.096;2023-01-04T04:55:01;2.00;99.90
15107;DHT22;7654;45.308;-75.096;2023-01-04T04:57:31;1.90;99.90
15107;DHT22;7654;45.308;-75.096;2023-01-04T05:00:01;1.90;99.90
15107;DHT22;7654;45.308;-75.096;2023-01-04T05:02:32;1.90;99.90
15107;DHT22;7654;45.308;-75.096;2023-01-04T05:05:03;1.90;99.90
15107;DHT22;7654;45.308;-75.096;2023-01-04T05:07:33;1.90;99.90
15107;DHT22;7654;45.308;-75.096;2023-01-04T05:10:06;1.90;99.90
15107;DHT22;7654;45.308;-75.096;2023-01-04T05:12:36;1.90;99.90
15107;DHT22;7654;45.308;-75.096;2023-01-04T05:15:24;1.90;99.90
15107;DHT22;7654;45.308;-75.096;2023-01-04T05:17:55;1.90;99.90
15107;DHT22;7654;45.308;-75.096;2023-01-04T05:20:25;1.90;99.90
15107;DHT22;7654;45.308;-75.096;2023-01-04T05:22:55;1.90;99.90
15107;DHT22;7654;45.308;-75.096;2023-01-04T05:25:27;1.90;99.90
15107;DHT22;7654;45.308;-75.096;2023-01-04T05:27:57;1.90;99.90
15107;DHT22;7654;45.308;-75.096;2023-01-04T05:30:28;1.90;99.90
15107;DHT22;7654;45.308;-75.096;2023-01-04T05:33:15;1.90;99.90
15107;DHT22;7654;45.308;-75.096;2023-01-04T05:35:45;1.90;99.90
15107;DHT22;7654;45.308;-75.096;2023-01-04T05:38:16;1.90;99.90
15107;DHT22;7654;45.308;-75.096;2023-01-04T05:40:48;1.80;99.90
15107;DHT22;7654;45.308;-75.096;2023-01-04T05:43:19;1.80;99.90
15107;DHT22;7654;45.308;-75.096;2023-01-04T05:45:51;1.80;99.90
15107;DHT22;7654;45.308;-75.096;2023-01-04T05:48:22;1.80;99.90
15107;DHT22;7654;45.308;-75.096;2023-01-04T05:50:53;1.80;99.90
15107;DHT22;7654;45.308;-75.096;2023-01-04T05:53:23;1.70;99.90
15107;DHT22;7654;45.308;-75.096;2023-01-04T05:55:55;1.70;99.90
15107;DHT22;7654;45.308;-75.096;2023-01-04T05:58:25;1.70;99.90
15107;DHT22;7654;45.308;-75.096;2023-01-04T06:00:56;1.70;99.90
15107;DHT22;7654;45.308;-75.096;2023-01-04T06:03:26;1.60;99.90
15107;DHT22;7654;45.308;-75.096;2023-01-04T06:05:57;1.60;99.90
15107;DHT22;7654;45.308;-75.096;2023-01-04T06:08:27;1.60;99.90
15107;DHT22;7654;45.308;-75.096;2023-01-04T06:10:58;1.50;99.90
15107;DHT22;7654;45.308;-75.096;2023-01-04T06:13:29;1.50;99.90
15107;DHT22;7654;45.308;-75.096;2023-01-04T06:15:59;1.50;99.90
15107;DHT22;7654;45.308;-75.096;2023-01-04T06:18:29;1.50;99.90
15107;DHT22;7654;45.308;-75.096;2023-01-04T06:20:59;1.40;99.90
15107;DHT22;7654;45.308;-75.096;2023-01-04T06:23:29;1.40;99.90
15107;DHT22;7654;45.308;-75.096;2023-01-04T06:26:01;1.40;99.90
15107;DHT22;7654;45.308;-75.096;2023-01-04T06:28:31;1.40;99.90
15107;DHT22;7654;45.308;-75.096;2023-01-04T06:31:08;1.40;99.90
15107;DHT22;7654;45.308;-75.096;2023-01-04T06:33:39;1.40;99.90
15107;DHT22;7654;45.308;-75.096;2023-01-04T06:36:09;1.30;99.90
15107;DHT22;7654;45.308;-75.096;2023-01-04T06:38:46;1.30;99.90
15107;DHT22;7654;45.308;-75.096;2023-01-04T06:41:18;1.30;99.90
15107;DHT22;7654;45.308;-75.096;2023-01-04T06:43:49;1.30;99.90
15107;DHT22;7654;45.308;-75.096;2023-01-04T06:46:19;1.30;99.90
15107;DHT22;7654;45.308;-75.096;2023-01-04T06:48:49;1.30;99.90
15107;DHT22;7654;45.308;-75.096;2023-01-04T06:51:20;1.20;99.90
15107;DHT22;7654;45.308;-75.096;2023-01-04T06:53:51;1.20;99.90
15107;DHT22;7654;45.308;-75.096;2023-01-04T06:56:23;1.20;99.90
15107;DHT22;7654;45.308;-75.096;2023-01-04T06:58:53;1.10;99.90
15107;DHT22;7654;45.308;-75.096;2023-01-04T07:01:23;1.10;99.90
15107;DHT22;7654;45.308;-75.096;2023-01-04T07:03:54;1.10;99.90
15107;DHT22;7654;45.308;-75.096;2023-01-04T07:06:24;1.10;99.90
15107;DHT22;7654;45.308;-75.096;2023-01-04T07:08:54;1.10;99.90
15107;DHT22;7654;45.308;-75.096;2023-01-04T07:11:26;1.10;99.90
15107;DHT22;7654;45.308;-75.096;2023-01-04T07:13:56;1.10;99.90
15107;DHT22;7654;45.308;-75.096;2023-01-04T07:16:27;1.10;99.90
15107;DHT22;7654;45.308;-75.096;2023-01-04T07:18:57;1.10;99.90
15107;DHT22;7654;45.308;-75.096;2023-01-04T07:21:27;1.10;99.90
15107;DHT22;7654;45.308;-75.096;2023-01-04T07:23:57;1.10;99.90
15107;DHT22;7654;45.308;-75.096;2023-01-04T07:26:29;1.10;99.90
15107;DHT22;7654;45.308;-75.096;2023-01-04T07:28:59;1.10;99.90
15107;DHT22;7654;45.308;-75.096;2023-01-04T07:31:46;1.10;99.90
15107;DHT22;7654;45.308;-75.096;2023-01-04T07:34:17;1.10;99.90
15107;DHT22;7654;45.308;-75.096;2023-01-04T07:36:47;1.10;99.90
15107;DHT22;7654;45.308;-75.096;2023-01-04T07:39:18;1.10;99.90
15107;DHT22;7654;45.308;-75.096;2023-01-04T07:41:50;1.10;99.90
15107;DHT22;7654;45.308;-75.096;2023-01-04T07:44:20;1.10;99.90
15107;DHT22;7654;45.308;-75.096;2023-01-04T07:46:52;1.10;99.90
15107;DHT22;7654;45.308;-75.096;2023-01-04T07:49:23;1.10;99.90
15107;DHT22;7654;45.308;-75.096;2023-01-04T07:51:53;1.10;99.90
15107;DHT22;7654;45.308;-75.096;2023-01-04T07:54:23;1.10;99.90
15107;DHT22;7654;45.308;-75.096;2023-01-04T07:56:55;1.10;99.90
15107;DHT22;7654;45.308;-75.096;2023-01-04T07:59:25;1.20;99.90
15107;DHT22;7654;45.308;-75.096;2023-01-04T08:01:55;1.20;99.90
15107;DHT22;7654;45.308;-75.096;2023-01-04T08:04:26;1.20;99.90
15107;DHT22;7654;45.308;-75.096;2023-01-04T08:07:02;1.20;99.90
15107;DHT22;7654;45.308;-75.096;2023-01-04T08:09:32;1.20;99.90
15107;DHT22;7654;45.308;-75.096;2023-01-04T08:12:04;1.20;99.90
15107;DHT22;7654;45.308;-75.096;2023-01-04T08:14:34;1.20;99.90
15107;DHT22;7654;45.308;-75.096;2023-01-04T08:17:04;1.20;99.90
15107;DHT22;7654;45.308;-75.096;2023-01-04T08:19:34;1.20;99.90
15107;DHT22;7654;45.308;-75.096;2023-01-04T08:22:04;1.20;99.90
15107;DHT22;7654;45.308;-75.096;2023-01-04T08:24:35;1.20;99.90
15107;DHT22;7654;45.308;-75.096;2023-01-04T08:27:06;1.20;99.90
15107;DHT22;7654;45.308;-75.096;2023-01-04T08:29:38;1.20;99.90
15107;DHT22;7654;45.308;-75.096;2023-01-04T08:32:08;1.20;99.90
15107;DHT22;7654;45.308;-75.096;2023-01-04T08:34:38;1.20;99.90
15107;DHT22;7654;45.308;-75.096;2023-01-04T08:37:08;1.20;99.90
15107;DHT22;7654;45.308;-75.096;2023-01-04T08:39:39;1.20;99.90
15107;DHT22;7654;45.308;-75.096;2023-01-04T08:42:17;1.20;99.90
15107;DHT22;7654;45.308;-75.096;2023-01-04T08:44:57;1.20;99.90
15107;DHT22;7654;45.308;-75.096;2023-01-04T08:47:29;1.20;99.90
15107;DHT22;7654;45.308;-75.096;2023-01-04T08:49:59;1.20;99.90
15107;DHT22;7654;45.308;-75.096;2023-01-04T08:52:37;1.30;99.90
15107;DHT22;7654;45.308;-75.096;2023-01-04T08:55:08;1.20;99.90
15107;DHT22;7654;45.308;-75.096;2023-01-04T08:57:43;1.20;99.90
15107;DHT22;7654;45.308;-75.096;2023-01-04T09:00:14;1.20;99.90
15107;DHT22;7654;45.308;-75.096;2023-01-04T09:02:46;1.10;99.90
15107;DHT22;7654;45.308;-75.096;2023-01-04T09:05:17;1.10;99.90
15107;DHT22;7654;45.308;-75.096;2023-01-04T09:07:49;1.10;99.90
15107;DHT22;7654;45.308;-75.096;2023-01-04T09:10:19;1.00;99.90
15107;DHT22;7654;45.308;-75.096;2023-01-04T09:12:52;1.00;99.90
15107;DHT22;7654;45.308;-75.096;2023-01-04T09:15:22;1.00;99.90
15107;DHT22;7654;45.308;-75.096;2023-01-04T09:17:52;1.10;99.90
15107;DHT22;7654;45.308;-75.096;2023-01-04T09:20:42;1.10;99.90
15107;DHT22;7654;45.308;-75.096;2023-01-04T09:23:12;1.10;99.90
15107;DHT22;7654;45.308;-75.096;2023-01-04T09:25:42;1.10;99.90
15107;DHT22;7654;45.308;-75.096;2023-01-04T09:28:14;1.10;99.90
15107;DHT22;7654;45.308;-75.096;2023-01-04T09:30:44;1.20;99.90
15107;DHT22;7654;45.308;-75.096;2023-01-04T09:33:15;1.20;99.90
15107;DHT22;7654;45.308;-75.096;2023-01-04T09:35:45;1.20;99.90
15107;DHT22;7654;45.308;-75.096;2023-01-04T09:38:15;1.20;99.90
15107;DHT22;7654;45.308;-75.096;2023-01-04T09:40:51;1.20;99.90
15107;DHT22;7654;45.308;-75.096;2023-01-04T09:43:24;1.20;99.90
15107;DHT22;7654;45.308;-75.096;2023-01-04T09:46:03;1.20;99.90
15107;DHT22;7654;45.308;-75.096;2023-01-04T09:48:36;1.20;99.90
15107;DHT22;7654;45.308;-75.096;2023-01-04T09:51:12;1.20;99.90
15107;DHT22;7654;45.308;-75.096;2023-01-04T09:53:47;1.20;99.90
15107;DHT22;7654;45.308;-75.096;2023-01-04T09:56:22;1.30;99.90
15107;DHT22;7654;45.308;-75.096;2023-01-04T09:58:57;1.30;99.90
15107;DHT22;7654;45.308;-75.096;2023-01-04T10:01:34;1.30;99.90
15107;DHT22;7654;45.308;-75.096;2023-01-04T10:04:15;1.30;99.90
15107;DHT22;7654;45.308;-75.096;2023-01-04T10:06:47;1.30;99.90
15107;DHT22;7654;45.308;-75.096;2023-01-04T10:09:17;1.30;99.90
15107;DHT22;7654;45.308;-75.096;2023-01-04T10:12:03;1.30;99.90
15107;DHT22;7654;45.308;-75.096;2023-01-04T10:14:47;1.30;99.90
15107;DHT22;7654;45.308;-75.096;2023-01-04T10:17:28;1.30;99.90
15107;DHT22;7654;45.308;-75.096;2023-01-04T10:20:48;1.30;99.90
15107;DHT22;7654;45.308;-75.096;2023-01-04T10:23:51;1.30;99.90
15107;DHT22;7654;45.308;-75.096;2023-01-04T10:26:25;1.30;99.90
15107;DHT22;7654;45.308;-75.096;2023-01-04T10:29:12;1.30;99.90
15107;DHT22;7654;45.308;-75.096;2023-01-04T10:31:57;1.30;99.90
15107;DHT22;7654;45.308;-75.096;2023-01-04T10:34:31;1.30;99.90
15107;DHT22;7654;45.308;-75.096;2023-01-04T10:37:09;1.30;99.90
15107;DHT22;7654;45.308;-75.096;2023-01-04T10:39:41;1.30;99.90
15107;DHT22;7654;45.308;-75.096;2023-01-04T10:42:18;1.40;99.90
15107;DHT22;7654;45.308;-75.096;2023-01-04T10:45:02;1.30;99.90
15107;DHT22;7654;45.308;-75.096;2023-01-04T10:47:43;1.40;99.90
15107;DHT22;7654;45.308;-75.096;2023-01-04T10:50:21;1.40;99.90
15107;DHT22;7654;45.308;-75.096;2023-01-04T10:52:58;1.40;99.90
15107;DHT22;7654;45.308;-75.096;2023-01-04T10:55:33;1.40;99.90
15107;DHT22;7654;45.308;-75.096;2023-01-04T10:58:11;1.40;99.90
15107;DHT22;7654;45.308;-75.096;2023-01-04T11:00:49;1.40;99.90
15107;DHT22;7654;45.308;-75.096;2023-01-04T11:03:25;1.40;99.90
15107;DHT22;7654;45.308;-75.096;2023-01-04T11:06:01;1.40;99.90
15107;DHT22;7654;45.308;-75.096;2023-01-04T11:08:43;1.40;99.90
15107;DHT22;7654;45.308;-75.096;2023-01-04T11:11:18;1.40;99.90
15107;DHT22;7654;45.308;-75.096;2023-01-04T11:13:49;1.40;99.90
15107;DHT22;7654;45.308;-75.096;2023-01-04T11:16:19;1.30;99.90
15107;DHT22;7654;45.308;-75.096;2023-01-04T11:18:51;1.40;99.90
15107;DHT22;7654;45.308;-75.096;2023-01-04T11:21:25;1.30;99.90
15107;DHT22;7654;45.308;-75.096;2023-01-04T11:23:58;1.30;99.90
15107;DHT22;7654;45.308;-75.096;2023-01-04T11:26:50;1.30;99.90
15107;DHT22;7654;45.308;-75.096;2023-01-04T11:29:28;1.30;99.90
15107;DHT22;7654;45.308;-75.096;2023-01-04T11:32:04;1.30;99.90
15107;DHT22;7654;45.308;-75.096;2023-01-04T11:34:51;1.30;99.90
15107;DHT22;7654;45.308;-75.096;2023-01-04T11:37:27;1.30;99.90
15107;DHT22;7654;45.308;-75.096;2023-01-04T11:40:16;1.30;99.90
15107;DHT22;7654;45.308;-75.096;2023-01-04T11:42:49;1.30;99.90
15107;DHT22;7654;45.308;-75.096;2023-01-04T11:45:22;1.30;99.90
15107;DHT22;7654;45.308;-75.096;2023-01-04T11:47:54;1.30;99.90
15107;DHT22;7654;45.308;-75.096;2023-01-04T11:50:44;1.30;99.90
15107;DHT22;7654;45.308;-75.096;2023-01-04T11:53:29;1.20;99.90
15107;DHT22;7654;45.308;-75.096;2023-01-04T11:56:15;1.20;99.90
15107;DHT22;7654;45.308;-75.096;2023-01-04T11:59:01;1.20;99.90
15107;DHT22;7654;45.308;-75.096;2023-01-04T12:01:33;1.20;99.90
15107;DHT22;7654;45.308;-75.096;2023-01-04T12:04:08;1.20;99.90
15107;DHT22;7654;45.308;-75.096;2023-01-04T12:06:48;1.10;99.90
15107;DHT22;7654;45.308;-75.096;2023-01-04T12:09:19;1.10;99.90
15107;DHT22;7654;45.308;-75.096;2023-01-04T12:11:51;1.10;99.90
15107;DHT22;7654;45.308;-75.096;2023-01-04T12:14:24;1.10;99.90
15107;DHT22;7654;45.308;-75.096;2023-01-04T12:17:00;1.10;99.90
15107;DHT22;7654;45.308;-75.096;2023-01-04T12:19:31;1.10;99.90
15107;DHT22;7654;45.308;-75.096;2023-01-04T12:22:16;1.10;99.90
15107;DHT22;7654;45.308;-75.096;2023-01-04T12:24:47;1.10;99.90
15107;DHT22;7654;45.308;-75.096;2023-01-04T12:27:26;1.10;99.90
15107;DHT22;7654;45.308;-75.096;2023-01-04T12:30:00;1.20;99.90
15107;DHT22;7654;45.308;-75.096;2023-01-04T12:32:43;1.20;99.90
15107;DHT22;7654;45.308;-75.096;2023-01-04T12:38:59;1.20;99.90
15107;DHT22;7654;45.308;-75.096;2023-01-04T12:45:17;1.20;99.90
15107;DHT22;7654;45.308;-75.096;2023-01-04T12:47:53;1.20;99.90
15107;DHT22;7654;45.308;-75.096;2023-01-04T12:54:24;1.30;99.90
15107;DHT22;7654;45.308;-75.096;2023-01-04T12:57:23;1.30;99.90
15107;DHT22;7654;45.308;-75.096;2023-01-04T12:59:59;1.30;99.90
15107;DHT22;7654;45.308;-75.096;2023-01-04T13:02:31;1.30;99.90
15107;DHT22;7654;45.308;-75.096;2023-01-04T13:05:23;1.40;99.90
15107;DHT22;7654;45.308;-75.096;2023-01-04T13:08:13;1.40;99.90
15107;DHT22;7654;45.308;-75.096;2023-01-04T13:10:47;1.40;99.90
15107;DHT22;7654;45.308;-75.096;2023-01-04T13:13:26;1.40;99.90
15107;DHT22;7654;45.308;-75.096;2023-01-04T13:16:07;1.40;99.90
15107;DHT22;7654;45.308;-75.096;2023-01-04T13:18:41;1.40;99.90
15107;DHT22;7654;45.308;-75.096;2023-01-04T13:21:14;1.50;99.90
15107;DHT22;7654;45.308;-75.096;2023-01-04T13:23:50;1.50;99.90
15107;DHT22;7654;45.308;-75.096;2023-01-04T13:26:37;1.50;99.90
15107;DHT22;7654;45.308;-75.096;2023-01-04T13:29:14;1.60;99.90
15107;DHT22;7654;45.308;-75.096;2023-01-04T13:31:50;1.60;99.90
15107;DHT22;7654;45.308;-75.096;2023-01-04T13:34:28;1.60;99.90
15107;DHT22;7654;45.308;-75.096;2023-01-04T13:37:10;1.60;99.90
15107;DHT22;7654;45.308;-75.096;2023-01-04T13:39:45;1.70;99.90
15107;DHT22;7654;45.308;-75.096;2023-01-04T13:42:22;1.70;99.90
15107;DHT22;7654;45.308;-75.096;2023-01-04T13:45:24;1.70;99.90
15107;DHT22;7654;45.308;-75.096;2023-01-04T13:47:57;1.80;99.90
15107;DHT22;7654;45.308;-75.096;2023-01-04T13:50:34;1.80;99.90
15107;DHT22;7654;45.308;-75.096;2023-01-04T13:53:05;1.80;99.90
15107;DHT22;7654;45.308;-75.096;2023-01-04T13:55:36;1.80;99.90
15107;DHT22;7654;45.308;-75.096;2023-01-04T13:58:16;1.90;99.90
15107;DHT22;7654;45.308;-75.096;2023-01-04T14:00:50;1.90;99.90
15107;DHT22;7654;45.308;-75.096;2023-01-04T14:03:26;2.00;99.90
15107;DHT22;7654;45.308;-75.096;2023-01-04T14:06:20;2.00;99.90
15107;DHT22;7654;45.308;-75.096;2023-01-04T14:09:03;2.00;99.90
15107;DHT22;7654;45.308;-75.096;2023-01-04T14:11:41;2.20;99.90
15107;DHT22;7654;45.308;-75.096;2023-01-04T14:14:38;2.20;99.90
15107;DHT22;7654;45.308;-75.096;2023-01-04T14:17:16;2.20;99.90
15107;DHT22;7654;45.308;-75.096;2023-01-04T14:19:51;2.20;99.90
15107;DHT22;7654;45.308;-75.096;2023-01-04T14:22:36;2.20;99.90
15107;DHT22;7654;45.308;-75.096;2023-01-04T14:28:35;2.20;99.90
15107;DHT22;7654;45.308;-75.096;2023-01-04T14:31:36;2.30;99.90
15107;DHT22;7654;45.308;-75.096;2023-01-04T14:34:11;2.40;99.90
15107;DHT22;7654;45.308;-75.096;2023-01-04T14:36:43;2.50;99.90
15107;DHT22;7654;45.308;-75.096;2023-01-04T14:39:27;2.60;99.90
15107;DHT22;7654;45.308;-75.096;2023-01-04T14:41:59;2.60;99.90
15107;DHT22;7654;45.308;-75.096;2023-01-04T14:44:31;2.60;99.90
15107;DHT22;7654;45.308;-75.096;2023-01-04T14:47:04;2.50;99.90
15107;DHT22;7654;45.308;-75.096;2023-01-04T14:49:35;2.50;99.90
15107;DHT22;7654;45.308;-75.096;2023-01-04T14:52:10;2.40;99.90
15107;DHT22;7654;45.308;-75.096;2023-01-04T14:54:41;2.40;99.90
15107;DHT22;7654;45.308;-75.096;2023-01-04T14:57:12;2.40;99.90
15107;DHT22;7654;45.308;-75.096;2023-01-04T14:59:42;2.40;99.90
15107;DHT22;7654;45.308;-75.096;2023-01-04T15:02:14;2.30;99.90
15107;DHT22;7654;45.308;-75.096;2023-01-04T15:04:45;2.30;99.90
15107;DHT22;7654;45.308;-75.096;2023-01-04T15:07:31;2.40;99.90
15107;DHT22;7654;45.308;-75.096;2023-01-04T15:10:05;2.30;99.90
15107;DHT22;7654;45.308;-75.096;2023-01-04T15:12:35;2.40;99.90
15107;DHT22;7654;45.308;-75.096;2023-01-04T15:15:06;2.40;99.90
15107;DHT22;7654;45.308;-75.096;2023-01-04T15:17:39;2.50;99.90
15107;DHT22;7654;45.308;-75.096;2023-01-04T15:20:10;2.60;99.90
15107;DHT22;7654;45.308;-75.096;2023-01-04T15:22:40;2.70;99.90
15107;DHT22;7654;45.308;-75.096;2023-01-04T15:25:11;2.70;99.90
15107;DHT22;7654;45.308;-75.096;2023-01-04T15:27:41;2.70;99.90
15107;DHT22;7654;45.308;-75.096;2023-01-04T15:30:12;2.80;99.90
15107;DHT22;7654;45.308;-75.096;2023-01-04T15:32:44;2.80;99.90
15107;DHT22;7654;45.308;-75.096;2023-01-04T15:35:15;2.90;99.90
15107;DHT22;7654;45.308;-75.096;2023-01-04T15:37:46;2.90;99.90
15107;DHT22;7654;45.308;-75.096;2023-01-04T15:40:17;3.00;99.90
15107;DHT22;7654;45.308;-75.096;2023-01-04T15:42:47;3.10;99.90
15107;DHT22;7654;45.308;-75.096;2023-01-04T15:45:30;3.10;99.90
15107;DHT22;7654;45.308;-75.096;2023-01-04T15:48:06;3.10;99.90
15107;DHT22;7654;45.308;-75.096;2023-01-04T15:50:38;3.10;99.90
15107;DHT22;7654;45.308;-75.096;2023-01-04T15:53:09;3.20;99.90
15107;DHT22;7654;45.308;-75.096;2023-01-04T15:55:39;3.20;99.90
15107;DHT22;7654;45.308;-75.096;2023-01-04T15:58:09;3.20;99.90
15107;DHT22;7654;45.308;-75.096;2023-01-04T16:00:39;3.20;99.90
15107;DHT22;7654;45.308;-75.096;2023-01-04T16:03:11;3.30;99.90
15107;DHT22;7654;45.308;-75.096;2023-01-04T16:05:42;3.50;99.90
15107;DHT22;7654;45.308;-75.096;2023-01-04T16:08:12;3.50;99.90
15107;DHT22;7654;45.308;-75.096;2023-01-04T16:10:42;3.60;99.90
15107;DHT22;7654;45.308;-75.096;2023-01-04T16:13:13;3.60;99.90
15107;DHT22;7654;45.308;-75.096;2023-01-04T16:15:54;3.70;99.90
15107;DHT22;7654;45.308;-75.096;2023-01-04T16:18:31;3.90;99.90
15107;DHT22;7654;45.308;-75.096;2023-01-04T16:21:05;4.00;99.90
15107;DHT22;7654;45.308;-75.096;2023-01-04T16:23:36;4.10;99.90
15107;DHT22;7654;45.308;-75.096;2023-01-04T16:26:08;4.10;99.90
15107;DHT22;7654;45.308;-75.096;2023-01-04T16:28:39;4.20;99.90
15107;DHT22;7654;45.308;-75.096;2023-01-04T16:31:09;4.30;99.90
15107;DHT22;7654;45.308;-75.096;2023-01-04T16:33:41;4.30;99.90
15107;DHT22;7654;45.308;-75.096;2023-01-04T16:36:14;4.20;99.90
15107;DHT22;7654;45.308;-75.096;2023-01-04T16:38:46;4.20;99.90